sensor_id;sensor_type;location;lat;lon;timestamp;P1;durP1;ratioP1;P2;durP2;ratioP2
51987;SDS011;38003;52.012;4.346;2022-08-01T00:00:05;6.43;;;3.95;;
51987;SDS011;38003;52.012;4.346;2022-08-01T00:02:35;4.88;;;3.85;;
51987;SDS011;38003;52.012;4.346;2022-08-01T00:05:04;6.53;;;4.35;;
51987;SDS011;38003;52.012;4.346;2022-08-01T00:07:34;6.70;;;4.25;;
51987;SDS011;38003;52.012;4.346;2022-08-01T00:10:02;6.63;;;4.18;;
51987;SDS011;38003;52.012;4.346;2022-08-01T00:12:32;6.47;;;4.38;;
51987;SDS011;38003;52.012;4.346;2022-08-01T00:15:00;6.25;;;3.97;;
51987;SDS011;38003;52.012;4.346;2022-08-01T00:17:28;6.35;;;3.15;;
51987;SDS011;38003;52.012;4.346;2022-08-01T00:19:56;6.18;;;3.80;;
51987;SDS011;38003;52.012;4.346;2022-08-01T00:22:25;5.70;;;3.55;;
51987;SDS011;38003;52.012;4.346;2022-08-01T00:24:52;5.40;;;3.78;;
51987;SDS011;38003;52.012;4.346;2022-08-01T00:27:20;5.72;;;3.92;;
51987;SDS011;38003;52.012;4.346;2022-08-01T00:29:51;5.93;;;3.60;;
51987;SDS011;38003;52.012;4.346;2022-08-01T00:32:39;5.47;;;3.40;;
51987;SDS011;38003;52.012;4.346;2022-08-01T00:35:07;5.18;;;3.20;;
51987;SDS011;38003;52.012;4.346;2022-08-01T00:37:35;2.72;;;2.35;;
51987;SDS011;38003;52.012;4.346;2022-08-01T00:40:03;2.28;;;1.85;;
51987;SDS011;38003;52.012;4.346;2022-08-01T00:42:32;1.92;;;1.58;;
51987;SDS011;38003;52.012;4.346;2022-08-01T00:45:07;1.85;;;1.30;;
51987;SDS011;38003;52.012;4.346;2022-08-01T00:47:36;1.85;;;1.30;;
51987;SDS011;38003;52.012;4.346;2022-08-01T00:50:04;1.95;;;1.35;;
51987;SDS011;38003;52.012;4.346;2022-08-01T00:52:32;1.42;;;1.30;;
51987;SDS011;38003;52.012;4.346;2022-08-01T00:55:01;1.92;;;1.30;;
51987;SDS011;38003;52.012;4.346;2022-08-01T00:57:29;3.00;;;1.45;;
51987;SDS011;38003;52.012;4.346;2022-08-01T01:00:19;1.80;;;1.45;;
51987;SDS011;38003;52.012;4.346;2022-08-01T01:02:52;2.83;;;1.50;;
51987;SDS011;38003;52.012;4.346;2022-08-01T01:05:20;3.08;;;1.90;;
51987;SDS011;38003;52.012;4.346;2022-08-01T01:07:50;4.03;;;1.75;;
51987;SDS011;38003;52.012;4.346;2022-08-01T01:10:25;2.58;;;1.67;;
51987;SDS011;38003;52.012;4.346;2022-08-01T01:12:59;2.40;;;2.13;;
51987;SDS011;38003;52.012;4.346;2022-08-01T01:15:34;2.83;;;2.03;;
51987;SDS011;38003;52.012;4.346;2022-08-01T01:18:09;3.13;;;2.30;;
51987;SDS011;38003;52.012;4.346;2022-08-01T01:20:40;2.83;;;2.45;;
51987;SDS011;38003;52.012;4.346;2022-08-01T01:23:15;5.15;;;2.40;;
51987;SDS011;38003;52.012;4.346;2022-08-01T01:26:04;3.00;;;2.63;;
51987;SDS011;38003;52.012;4.346;2022-08-01T01:28:56;3.08;;;2.58;;
51987;SDS011;38003;52.012;4.346;2022-08-01T01:31:28;3.42;;;2.70;;
51987;SDS011;38003;52.012;4.346;2022-08-01T01:34:00;4.13;;;2.55;;
51987;SDS011;38003;52.012;4.346;2022-08-01T01:36:30;4.25;;;2.50;;
51987;SDS011;38003;52.012;4.346;2022-08-01T01:38:59;3.15;;;2.38;;
51987;SDS011;38003;52.012;4.346;2022-08-01T01:41:28;3.92;;;2.40;;
51987;SDS011;38003;52.012;4.346;2022-08-01T01:43:58;4.18;;;2.45;;
51987;SDS011;38003;52.012;4.346;2022-08-01T01:46:28;5.18;;;2.83;;
51987;SDS011;38003;52.012;4.346;2022-08-01T01:48:57;4.43;;;2.63;;
51987;SDS011;38003;52.012;4.346;2022-08-01T01:51:27;3.38;;;3.00;;
51987;SDS011;38003;52.012;4.346;2022-08-01T01:53:56;3.65;;;2.83;;
51987;SDS011;38003;52.012;4.346;2022-08-01T01:56:26;3.63;;;2.70;;
51987;SDS011;38003;52.012;4.346;2022-08-01T01:58:56;6.68;;;2.88;;
51987;SDS011;38003;52.012;4.346;2022-08-01T02:01:28;4.85;;;2.63;;
51987;SDS011;38003;52.012;4.346;2022-08-01T02:04:18;4.15;;;2.30;;
51987;SDS011;38003;52.012;4.346;2022-08-01T02:06:50;4.47;;;2.50;;
51987;SDS011;38003;52.012;4.346;2022-08-01T02:09:20;4.30;;;2.20;;
51987;SDS011;38003;52.012;4.346;2022-08-01T02:11:50;2.45;;;2.22;;
51987;SDS011;38003;52.012;4.346;2022-08-01T02:14:40;3.05;;;2.20;;
51987;SDS011;38003;52.012;4.346;2022-08-01T02:17:11;3.58;;;2.20;;
51987;SDS011;38003;52.012;4.346;2022-08-01T02:19:43;2.90;;;2.20;;
51987;SDS011;38003;52.012;4.346;2022-08-01T02:22:13;3.38;;;1.55;;
51987;SDS011;38003;52.012;4.346;2022-08-01T02:24:48;2.47;;;1.63;;
51987;SDS011;38003;52.012;4.346;2022-08-01T02:27:21;3.50;;;1.58;;
51987;SDS011;38003;52.012;4.346;2022-08-01T02:29:55;2.15;;;1.40;;
51987;SDS011;38003;52.012;4.346;2022-08-01T02:32:27;1.55;;;1.20;;
51987;SDS011;38003;52.012;4.346;2022-08-01T02:35:00;1.92;;;1.20;;
51987;SDS011;38003;52.012;4.346;2022-08-01T02:37:30;2.88;;;1.10;;
51987;SDS011;38003;52.012;4.346;2022-08-01T02:40:01;1.83;;;1.20;;
51987;SDS011;38003;52.012;4.346;2022-08-01T02:42:31;3.10;;;1.10;;
51987;SDS011;38003;52.012;4.346;2022-08-01T02:45:03;2.72;;;1.10;;
51987;SDS011;38003;52.012;4.346;2022-08-01T02:47:34;1.90;;;1.13;;
51987;SDS011;38003;52.012;4.346;2022-08-01T02:50:05;2.35;;;1.00;;
51987;SDS011;38003;52.012;4.346;2022-08-01T02:52:34;2.83;;;1.17;;
51987;SDS011;38003;52.012;4.346;2022-08-01T02:55:05;2.55;;;1.10;;
51987;SDS011;38003;52.012;4.346;2022-08-01T02:57:34;2.08;;;1.20;;
51987;SDS011;38003;52.012;4.346;2022-08-01T03:00:22;1.67;;;0.98;;
51987;SDS011;38003;52.012;4.346;2022-08-01T03:02:52;2.63;;;1.13;;
51987;SDS011;38003;52.012;4.346;2022-08-01T03:05:21;2.67;;;1.30;;
51987;SDS011;38003;52.012;4.346;2022-08-01T03:07:51;2.53;;;1.10;;
51987;SDS011;38003;52.012;4.346;2022-08-01T03:10:20;3.55;;;1.30;;
51987;SDS011;38003;52.012;4.346;2022-08-01T03:12:51;3.00;;;1.20;;
51987;SDS011;38003;52.012;4.346;2022-08-01T03:15:19;2.78;;;1.02;;
51987;SDS011;38003;52.012;4.346;2022-08-01T03:17:50;1.75;;;1.00;;
51987;SDS011;38003;52.012;4.346;2022-08-01T03:20:21;1.98;;;1.40;;
51987;SDS011;38003;52.012;4.346;2022-08-01T03:22:52;2.63;;;1.25;;
51987;SDS011;38003;52.012;4.346;2022-08-01T03:25:21;1.77;;;1.13;;
51987;SDS011;38003;52.012;4.346;2022-08-01T03:27:54;3.20;;;1.50;;
51987;SDS011;38003;52.012;4.346;2022-08-01T03:30:27;3.58;;;1.50;;
51987;SDS011;38003;52.012;4.346;2022-08-01T03:32:56;2.15;;;1.30;;
51987;SDS011;38003;52.012;4.346;2022-08-01T03:35:25;2.10;;;1.48;;
51987;SDS011;38003;52.012;4.346;2022-08-01T03:37:57;2.55;;;1.42;;
51987;SDS011;38003;52.012;4.346;2022-08-01T03:40:43;2.60;;;1.10;;
51987;SDS011;38003;52.012;4.346;2022-08-01T03:43:16;2.70;;;1.48;;
51987;SDS011;38003;52.012;4.346;2022-08-01T03:45:50;4.47;;;1.20;;
51987;SDS011;38003;52.012;4.346;2022-08-01T03:48:24;2.28;;;1.20;;
51987;SDS011;38003;52.012;4.346;2022-08-01T03:50:57;2.53;;;1.50;;
51987;SDS011;38003;52.012;4.346;2022-08-01T03:53:28;2.47;;;1.40;;
51987;SDS011;38003;52.012;4.346;2022-08-01T03:55:59;2.13;;;1.20;;
51987;SDS011;38003;52.012;4.346;2022-08-01T03:58:28;3.10;;;1.35;;
51987;SDS011;38003;52.012;4.346;2022-08-01T04:00:58;1.70;;;1.30;;
51987;SDS011;38003;52.012;4.346;2022-08-01T04:03:26;1.92;;;1.25;;
51987;SDS011;38003;52.012;4.346;2022-08-01T04:05:55;2.80;;;1.50;;
51987;SDS011;38003;52.012;4.346;2022-08-01T04:08:23;1.52;;;1.20;;
51987;SDS011;38003;52.012;4.346;2022-08-01T04:11:01;2.75;;;1.40;;
51987;SDS011;38003;52.012;4.346;2022-08-01T04:13:29;3.80;;;1.70;;
51987;SDS011;38003;52.012;4.346;2022-08-01T04:16:05;2.22;;;1.23;;
51987;SDS011;38003;52.012;4.346;2022-08-01T04:18:33;2.30;;;1.20;;
51987;SDS011;38003;52.012;4.346;2022-08-01T04:21:00;2.05;;;1.15;;
51987;SDS011;38003;52.012;4.346;2022-08-01T04:23:28;3.53;;;1.40;;
51987;SDS011;38003;52.012;4.346;2022-08-01T04:25:58;1.60;;;1.20;;
51987;SDS011;38003;52.012;4.346;2022-08-01T04:28:31;2.53;;;1.13;;
51987;SDS011;38003;52.012;4.346;2022-08-01T04:31:02;2.15;;;1.20;;
51987;SDS011;38003;52.012;4.346;2022-08-01T04:33:33;1.33;;;1.20;;
51987;SDS011;38003;52.012;4.346;2022-08-01T04:36:02;2.03;;;1.20;;
51987;SDS011;38003;52.012;4.346;2022-08-01T04:38:33;3.20;;;1.20;;
51987;SDS011;38003;52.012;4.346;2022-08-01T04:41:03;1.40;;;1.30;;
51987;SDS011;38003;52.012;4.346;2022-08-01T04:43:35;2.55;;;1.30;;
51987;SDS011;38003;52.012;4.346;2022-08-01T04:46:05;1.70;;;1.30;;
51987;SDS011;38003;52.012;4.346;2022-08-01T04:48:34;2.50;;;1.50;;
51987;SDS011;38003;52.012;4.346;2022-08-01T04:51:06;2.22;;;1.30;;
51987;SDS011;38003;52.012;4.346;2022-08-01T04:53:41;2.88;;;1.25;;
51987;SDS011;38003;52.012;4.346;2022-08-01T04:56:10;2.83;;;1.30;;
51987;SDS011;38003;52.012;4.346;2022-08-01T04:58:39;2.50;;;1.48;;
51987;SDS011;38003;52.012;4.346;2022-08-01T05:01:09;2.45;;;1.30;;
51987;SDS011;38003;52.012;4.346;2022-08-01T05:03:37;2.03;;;1.27;;
51987;SDS011;38003;52.012;4.346;2022-08-01T05:06:05;2.65;;;1.50;;
51987;SDS011;38003;52.012;4.346;2022-08-01T05:08:33;1.73;;;1.40;;
51987;SDS011;38003;52.012;4.346;2022-08-01T05:11:02;1.60;;;1.30;;
51987;SDS011;38003;52.012;4.346;2022-08-01T05:13:30;1.67;;;1.50;;
51987;SDS011;38003;52.012;4.346;2022-08-01T05:15:58;2.00;;;1.63;;
51987;SDS011;38003;52.012;4.346;2022-08-01T05:18:31;2.00;;;1.80;;
51987;SDS011;38003;52.012;4.346;2022-08-01T05:20:59;3.10;;;2.10;;
51987;SDS011;38003;52.012;4.346;2022-08-01T05:23:28;2.72;;;1.77;;
51987;SDS011;38003;52.012;4.346;2022-08-01T05:26:08;2.30;;;1.85;;
51987;SDS011;38003;52.012;4.346;2022-08-01T05:28:39;2.47;;;1.52;;
51987;SDS011;38003;52.012;4.346;2022-08-01T05:31:07;2.38;;;1.80;;
51987;SDS011;38003;52.012;4.346;2022-08-01T05:33:37;2.33;;;1.90;;
51987;SDS011;38003;52.012;4.346;2022-08-01T05:36:05;3.97;;;2.15;;
51987;SDS011;38003;52.012;4.346;2022-08-01T05:38:33;3.05;;;1.92;;
51987;SDS011;38003;52.012;4.346;2022-08-01T05:41:01;3.65;;;2.22;;
51987;SDS011;38003;52.012;4.346;2022-08-01T05:43:29;3.75;;;2.08;;
51987;SDS011;38003;52.012;4.346;2022-08-01T05:45:57;4.85;;;2.17;;
51987;SDS011;38003;52.012;4.346;2022-08-01T05:48:25;4.68;;;2.42;;
51987;SDS011;38003;52.012;4.346;2022-08-01T05:50:54;4.50;;;2.22;;
51987;SDS011;38003;52.012;4.346;2022-08-01T05:53:24;3.45;;;2.13;;
51987;SDS011;38003;52.012;4.346;2022-08-01T05:55:52;5.18;;;2.03;;
51987;SDS011;38003;52.012;4.346;2022-08-01T05:58:20;2.97;;;2.20;;
51987;SDS011;38003;52.012;4.346;2022-08-01T06:00:48;4.60;;;1.98;;
51987;SDS011;38003;52.012;4.346;2022-08-01T06:03:16;4.60;;;2.20;;
51987;SDS011;38003;52.012;4.346;2022-08-01T06:05:43;2.78;;;2.00;;
51987;SDS011;38003;52.012;4.346;2022-08-01T06:08:13;3.78;;;2.65;;
51987;SDS011;38003;52.012;4.346;2022-08-01T06:10:41;3.55;;;2.30;;
51987;SDS011;38003;52.012;4.346;2022-08-01T06:13:09;5.68;;;2.78;;
51987;SDS011;38003;52.012;4.346;2022-08-01T06:15:37;4.38;;;2.55;;
51987;SDS011;38003;52.012;4.346;2022-08-01T06:18:05;2.50;;;2.17;;
51987;SDS011;38003;52.012;4.346;2022-08-01T06:20:33;4.13;;;2.78;;
51987;SDS011;38003;52.012;4.346;2022-08-01T06:23:01;4.53;;;2.75;;
51987;SDS011;38003;52.012;4.346;2022-08-01T06:25:51;2.83;;;2.42;;
51987;SDS011;38003;52.012;4.346;2022-08-01T06:28:20;2.85;;;2.30;;
51987;SDS011;38003;52.012;4.346;2022-08-01T06:30:48;3.20;;;2.53;;
51987;SDS011;38003;52.012;4.346;2022-08-01T06:33:16;3.25;;;2.50;;
51987;SDS011;38003;52.012;4.346;2022-08-01T06:35:44;3.28;;;2.72;;
51987;SDS011;38003;52.012;4.346;2022-08-01T06:38:11;4.63;;;3.10;;
51987;SDS011;38003;52.012;4.346;2022-08-01T06:40:39;4.30;;;2.95;;
51987;SDS011;38003;52.012;4.346;2022-08-01T06:43:09;6.07;;;3.07;;
51987;SDS011;38003;52.012;4.346;2022-08-01T06:45:37;6.13;;;3.13;;
51987;SDS011;38003;52.012;4.346;2022-08-01T06:48:05;4.67;;;3.27;;
51987;SDS011;38003;52.012;4.346;2022-08-01T06:50:33;4.25;;;3.10;;
51987;SDS011;38003;52.012;4.346;2022-08-01T06:53:02;8.40;;;4.68;;
51987;SDS011;38003;52.012;4.346;2022-08-01T06:55:31;9.20;;;4.28;;
51987;SDS011;38003;52.012;4.346;2022-08-01T06:57:59;11.20;;;4.60;;
51987;SDS011;38003;52.012;4.346;2022-08-01T07:03:36;8.57;;;4.20;;
51987;SDS011;38003;52.012;4.346;2022-08-01T07:06:36;12.32;;;5.15;;
51987;SDS011;38003;52.012;4.346;2022-08-01T07:09:04;11.57;;;5.60;;
51987;SDS011;38003;52.012;4.346;2022-08-01T07:14:22;12.10;;;5.82;;
51987;SDS011;38003;52.012;4.346;2022-08-01T07:16:52;10.70;;;5.68;;
51987;SDS011;38003;52.012;4.346;2022-08-01T07:19:20;10.85;;;6.15;;
51987;SDS011;38003;52.012;4.346;2022-08-01T07:21:48;10.75;;;6.18;;
51987;SDS011;38003;52.012;4.346;2022-08-01T07:24:16;13.10;;;6.28;;
51987;SDS011;38003;52.012;4.346;2022-08-01T07:26:46;11.93;;;6.70;;
51987;SDS011;38003;52.012;4.346;2022-08-01T07:29:19;14.05;;;7.40;;
51987;SDS011;38003;52.012;4.346;2022-08-01T07:31:48;13.63;;;7.18;;
51987;SDS011;38003;52.012;4.346;2022-08-01T07:34:18;11.48;;;7.50;;
51987;SDS011;38003;52.012;4.346;2022-08-01T07:36:46;12.75;;;7.47;;
51987;SDS011;38003;52.012;4.346;2022-08-01T07:39:14;14.20;;;8.60;;
51987;SDS011;38003;52.012;4.346;2022-08-01T07:41:41;17.40;;;8.65;;
51987;SDS011;38003;52.012;4.346;2022-08-01T07:44:29;14.70;;;8.68;;
51987;SDS011;38003;52.012;4.346;2022-08-01T07:46:57;14.32;;;8.52;;
51987;SDS011;38003;52.012;4.346;2022-08-01T07:49:27;16.77;;;8.13;;
51987;SDS011;38003;52.012;4.346;2022-08-01T07:51:55;18.42;;;8.20;;
51987;SDS011;38003;52.012;4.346;2022-08-01T07:54:29;13.90;;;7.85;;
51987;SDS011;38003;52.012;4.346;2022-08-01T07:56:59;14.77;;;7.72;;
51987;SDS011;38003;52.012;4.346;2022-08-01T07:59:27;9.73;;;5.93;;
51987;SDS011;38003;52.012;4.346;2022-08-01T08:01:55;11.07;;;5.68;;
51987;SDS011;38003;52.012;4.346;2022-08-01T08:04:23;8.70;;;4.90;;
51987;SDS011;38003;52.012;4.346;2022-08-01T08:06:53;10.07;;;4.95;;
51987;SDS011;38003;52.012;4.346;2022-08-01T08:09:21;8.90;;;4.40;;
51987;SDS011;38003;52.012;4.346;2022-08-01T08:11:49;9.02;;;5.00;;
51987;SDS011;38003;52.012;4.346;2022-08-01T08:14:17;10.93;;;4.40;;
51987;SDS011;38003;52.012;4.346;2022-08-01T08:16:45;8.30;;;4.25;;
51987;SDS011;38003;52.012;4.346;2022-08-01T08:19:13;8.43;;;3.78;;
51987;SDS011;38003;52.012;4.346;2022-08-01T08:21:42;5.28;;;3.00;;
51987;SDS011;38003;52.012;4.346;2022-08-01T08:24:11;5.85;;;2.80;;
51987;SDS011;38003;52.012;4.346;2022-08-01T08:26:53;5.65;;;3.60;;
51987;SDS011;38003;52.012;4.346;2022-08-01T08:29:23;7.40;;;2.83;;
51987;SDS011;38003;52.012;4.346;2022-08-01T08:31:51;8.02;;;3.17;;
51987;SDS011;38003;52.012;4.346;2022-08-01T08:34:20;6.63;;;3.03;;
51987;SDS011;38003;52.012;4.346;2022-08-01T08:36:48;5.85;;;2.70;;
51987;SDS011;38003;52.012;4.346;2022-08-01T08:39:18;5.28;;;2.20;;
51987;SDS011;38003;52.012;4.346;2022-08-01T08:41:46;5.45;;;2.22;;
51987;SDS011;38003;52.012;4.346;2022-08-01T08:44:15;6.90;;;2.30;;
51987;SDS011;38003;52.012;4.346;2022-08-01T08:46:45;6.43;;;2.15;;
51987;SDS011;38003;52.012;4.346;2022-08-01T08:49:15;6.18;;;1.98;;
51987;SDS011;38003;52.012;4.346;2022-08-01T08:51:44;3.63;;;2.10;;
51987;SDS011;38003;52.012;4.346;2022-08-01T08:54:16;5.30;;;1.85;;
51987;SDS011;38003;52.012;4.346;2022-08-01T08:56:54;5.05;;;1.90;;
51987;SDS011;38003;52.012;4.346;2022-08-01T08:59:23;4.32;;;1.70;;
51987;SDS011;38003;52.012;4.346;2022-08-01T09:01:51;4.20;;;1.90;;
51987;SDS011;38003;52.012;4.346;2022-08-01T09:04:20;5.43;;;2.00;;
51987;SDS011;38003;52.012;4.346;2022-08-01T09:06:51;4.95;;;1.60;;
51987;SDS011;38003;52.012;4.346;2022-08-01T09:09:21;4.95;;;1.90;;
51987;SDS011;38003;52.012;4.346;2022-08-01T09:11:49;9.50;;;2.35;;
51987;SDS011;38003;52.012;4.346;2022-08-01T09:14:23;6.85;;;2.13;;
51987;SDS011;38003;52.012;4.346;2022-08-01T09:17:00;6.00;;;1.92;;
51987;SDS011;38003;52.012;4.346;2022-08-01T09:19:36;7.18;;;2.20;;
51987;SDS011;38003;52.012;4.346;2022-08-01T09:22:07;5.57;;;1.88;;
51987;SDS011;38003;52.012;4.346;2022-08-01T09:24:38;7.40;;;1.50;;
51987;SDS011;38003;52.012;4.346;2022-08-01T09:27:16;3.65;;;1.88;;
51987;SDS011;38003;52.012;4.346;2022-08-01T09:29:47;5.13;;;1.67;;
51987;SDS011;38003;52.012;4.346;2022-08-01T09:32:27;6.25;;;1.92;;
51987;SDS011;38003;52.012;4.346;2022-08-01T09:35:21;4.35;;;1.55;;
51987;SDS011;38003;52.012;4.346;2022-08-01T09:38:12;4.70;;;1.80;;
51987;SDS011;38003;52.012;4.346;2022-08-01T09:40:46;4.90;;;1.77;;
51987;SDS011;38003;52.012;4.346;2022-08-01T09:43:16;4.40;;;1.60;;
51987;SDS011;38003;52.012;4.346;2022-08-01T09:45:44;3.65;;;1.40;;
51987;SDS011;38003;52.012;4.346;2022-08-01T09:48:18;8.50;;;2.30;;
51987;SDS011;38003;52.012;4.346;2022-08-01T09:50:53;4.20;;;1.75;;
51987;SDS011;38003;52.012;4.346;2022-08-01T09:53:41;6.88;;;1.63;;
51987;SDS011;38003;52.012;4.346;2022-08-01T09:56:18;5.57;;;1.77;;
51987;SDS011;38003;52.012;4.346;2022-08-01T09:58:51;4.80;;;1.60;;
51987;SDS011;38003;52.012;4.346;2022-08-01T10:01:27;6.65;;;1.80;;
51987;SDS011;38003;52.012;4.346;2022-08-01T10:04:06;5.20;;;1.83;;
51987;SDS011;38003;52.012;4.346;2022-08-01T10:06:37;6.57;;;2.22;;
51987;SDS011;38003;52.012;4.346;2022-08-01T10:09:07;9.82;;;2.28;;
51987;SDS011;38003;52.012;4.346;2022-08-01T10:11:37;9.57;;;2.00;;
51987;SDS011;38003;52.012;4.346;2022-08-01T10:14:06;7.68;;;2.28;;
51987;SDS011;38003;52.012;4.346;2022-08-01T10:16:35;7.70;;;2.45;;
51987;SDS011;38003;52.012;4.346;2022-08-01T10:19:05;3.75;;;2.10;;
51987;SDS011;38003;52.012;4.346;2022-08-01T10:21:40;9.60;;;2.40;;
51987;SDS011;38003;52.012;4.346;2022-08-01T10:24:25;8.45;;;2.30;;
51987;SDS011;38003;52.012;4.346;2022-08-01T10:26:57;6.03;;;1.90;;
51987;SDS011;38003;52.012;4.346;2022-08-01T10:29:35;6.40;;;2.20;;
51987;SDS011;38003;52.012;4.346;2022-08-01T10:32:25;8.10;;;2.40;;
51987;SDS011;38003;52.012;4.346;2022-08-01T10:34:54;8.52;;;1.95;;
51987;SDS011;38003;52.012;4.346;2022-08-01T10:37:23;8.98;;;2.63;;
51987;SDS011;38003;52.012;4.346;2022-08-01T10:39:52;7.80;;;2.70;;
51987;SDS011;38003;52.012;4.346;2022-08-01T10:42:43;8.20;;;2.47;;
51987;SDS011;38003;52.012;4.346;2022-08-01T10:45:12;7.55;;;2.78;;
51987;SDS011;38003;52.012;4.346;2022-08-01T10:47:42;9.15;;;2.50;;
51987;SDS011;38003;52.012;4.346;2022-08-01T10:50:17;5.22;;;2.10;;
51987;SDS011;38003;52.012;4.346;2022-08-01T10:53:06;4.78;;;1.80;;
51987;SDS011;38003;52.012;4.346;2022-08-01T10:55:48;7.97;;;2.28;;
51987;SDS011;38003;52.012;4.346;2022-08-01T10:58:22;7.20;;;2.58;;
51987;SDS011;38003;52.012;4.346;2022-08-01T11:03:56;9.25;;;2.20;;
51987;SDS011;38003;52.012;4.346;2022-08-01T11:06:28;7.18;;;2.47;;
51987;SDS011;38003;52.012;4.346;2022-08-01T11:09:15;4.15;;;1.88;;
51987;SDS011;38003;52.012;4.346;2022-08-01T11:12:03;5.93;;;2.25;;
51987;SDS011;38003;52.012;4.346;2022-08-01T11:17:56;11.60;;;2.45;;
51987;SDS011;38003;52.012;4.346;2022-08-01T11:20:30;6.55;;;2.25;;
51987;SDS011;38003;52.012;4.346;2022-08-01T11:23:16;9.60;;;2.33;;
51987;SDS011;38003;52.012;4.346;2022-08-01T11:26:06;5.90;;;2.38;;
51987;SDS011;38003;52.012;4.346;2022-08-01T11:29:11;5.63;;;1.70;;
51987;SDS011;38003;52.012;4.346;2022-08-01T11:31:48;6.05;;;1.95;;
51987;SDS011;38003;52.012;4.346;2022-08-01T11:34:18;4.50;;;1.70;;
51987;SDS011;38003;52.012;4.346;2022-08-01T11:36:46;7.35;;;1.75;;
51987;SDS011;38003;52.012;4.346;2022-08-01T11:39:24;3.25;;;1.50;;
51987;SDS011;38003;52.012;4.346;2022-08-01T11:41:55;6.80;;;1.75;;
51987;SDS011;38003;52.012;4.346;2022-08-01T11:44:49;4.43;;;1.70;;
51987;SDS011;38003;52.012;4.346;2022-08-01T11:47:19;5.07;;;1.60;;
51987;SDS011;38003;52.012;4.346;2022-08-01T11:50:29;8.50;;;1.83;;
51987;SDS011;38003;52.012;4.346;2022-08-01T11:52:58;6.95;;;2.05;;
51987;SDS011;38003;52.012;4.346;2022-08-01T11:55:27;2.90;;;1.27;;
51987;SDS011;38003;52.012;4.346;2022-08-01T11:58:00;5.05;;;1.70;;
51987;SDS011;38003;52.012;4.346;2022-08-01T12:00:29;6.15;;;1.75;;
51987;SDS011;38003;52.012;4.346;2022-08-01T12:02:59;6.28;;;1.75;;
51987;SDS011;38003;52.012;4.346;2022-08-01T12:05:30;12.63;;;2.30;;
51987;SDS011;38003;52.012;4.346;2022-08-01T12:08:00;7.45;;;1.52;;
51987;SDS011;38003;52.012;4.346;2022-08-01T12:10:30;5.00;;;1.40;;
51987;SDS011;38003;52.012;4.346;2022-08-01T12:13:15;5.28;;;1.52;;
51987;SDS011;38003;52.012;4.346;2022-08-01T12:15:44;5.38;;;1.70;;
51987;SDS011;38003;52.012;4.346;2022-08-01T12:18:13;4.05;;;1.67;;
51987;SDS011;38003;52.012;4.346;2022-08-01T12:20:42;7.20;;;1.50;;
51987;SDS011;38003;52.012;4.346;2022-08-01T12:23:22;4.25;;;1.50;;
51987;SDS011;38003;52.012;4.346;2022-08-01T12:25:51;4.70;;;1.67;;
51987;SDS011;38003;52.012;4.346;2022-08-01T12:28:19;5.40;;;1.70;;
51987;SDS011;38003;52.012;4.346;2022-08-01T12:30:47;8.07;;;1.90;;
51987;SDS011;38003;52.012;4.346;2022-08-01T12:33:18;8.23;;;1.73;;
51987;SDS011;38003;52.012;4.346;2022-08-01T12:35:48;6.65;;;1.40;;
51987;SDS011;38003;52.012;4.346;2022-08-01T12:38:16;7.30;;;2.15;;
51987;SDS011;38003;52.012;4.346;2022-08-01T12:40:48;5.65;;;1.80;;
51987;SDS011;38003;52.012;4.346;2022-08-01T12:43:19;3.92;;;1.27;;
51987;SDS011;38003;52.012;4.346;2022-08-01T12:45:54;5.20;;;1.50;;
51987;SDS011;38003;52.012;4.346;2022-08-01T12:48:27;5.63;;;1.90;;
51987;SDS011;38003;52.012;4.346;2022-08-01T12:50:57;7.78;;;1.73;;
51987;SDS011;38003;52.012;4.346;2022-08-01T12:53:27;6.60;;;1.90;;
51987;SDS011;38003;52.012;4.346;2022-08-01T12:56:07;6.43;;;2.03;;
51987;SDS011;38003;52.012;4.346;2022-08-01T12:58:35;6.15;;;1.90;;
51987;SDS011;38003;52.012;4.346;2022-08-01T13:01:04;6.70;;;1.65;;
51987;SDS011;38003;52.012;4.346;2022-08-01T13:03:34;5.88;;;1.75;;
51987;SDS011;38003;52.012;4.346;2022-08-01T13:06:09;3.78;;;1.35;;
51987;SDS011;38003;52.012;4.346;2022-08-01T13:08:38;4.65;;;1.20;;
51987;SDS011;38003;52.012;4.346;2022-08-01T13:11:07;6.70;;;1.73;;
51987;SDS011;38003;52.012;4.346;2022-08-01T13:13:38;6.90;;;1.48;;
51987;SDS011;38003;52.012;4.346;2022-08-01T13:16:08;4.90;;;1.52;;
51987;SDS011;38003;52.012;4.346;2022-08-01T13:18:42;7.72;;;1.90;;
51987;SDS011;38003;52.012;4.346;2022-08-01T13:21:16;5.93;;;1.70;;
51987;SDS011;38003;52.012;4.346;2022-08-01T13:23:59;4.10;;;1.40;;
51987;SDS011;38003;52.012;4.346;2022-08-01T13:26:42;6.13;;;2.03;;
51987;SDS011;38003;52.012;4.346;2022-08-01T13:29:11;6.10;;;1.65;;
51987;SDS011;38003;52.012;4.346;2022-08-01T13:31:40;3.97;;;1.50;;
51987;SDS011;38003;52.012;4.346;2022-08-01T13:34:10;4.03;;;1.60;;
51987;SDS011;38003;52.012;4.346;2022-08-01T13:36:39;7.10;;;1.70;;
51987;SDS011;38003;52.012;4.346;2022-08-01T13:39:14;5.95;;;1.50;;
51987;SDS011;38003;52.012;4.346;2022-08-01T13:41:59;7.47;;;1.60;;
51987;SDS011;38003;52.012;4.346;2022-08-01T13:44:27;4.65;;;1.50;;
51987;SDS011;38003;52.012;4.346;2022-08-01T13:46:55;7.38;;;1.20;;
51987;SDS011;38003;52.012;4.346;2022-08-01T13:49:25;3.15;;;1.55;;
51987;SDS011;38003;52.012;4.346;2022-08-01T13:52:03;5.05;;;1.13;;
51987;SDS011;38003;52.012;4.346;2022-08-01T13:54:32;3.22;;;1.48;;
51987;SDS011;38003;52.012;4.346;2022-08-01T13:57:00;3.17;;;1.10;;
51987;SDS011;38003;52.012;4.346;2022-08-01T13:59:28;4.28;;;1.20;;
51987;SDS011;38003;52.012;4.346;2022-08-01T14:01:56;2.75;;;1.55;;
51987;SDS011;38003;52.012;4.346;2022-08-01T14:04:26;5.13;;;1.05;;
51987;SDS011;38003;52.012;4.346;2022-08-01T14:06:54;3.42;;;1.40;;
51987;SDS011;38003;52.012;4.346;2022-08-01T14:09:24;5.28;;;1.17;;
51987;SDS011;38003;52.012;4.346;2022-08-01T14:11:57;3.95;;;1.13;;
51987;SDS011;38003;52.012;4.346;2022-08-01T14:14:25;5.28;;;1.30;;
51987;SDS011;38003;52.012;4.346;2022-08-01T14:16:53;5.72;;;1.00;;
51987;SDS011;38003;52.012;4.346;2022-08-01T14:19:21;3.58;;;1.10;;
51987;SDS011;38003;52.012;4.346;2022-08-01T14:22:05;4.53;;;1.33;;
51987;SDS011;38003;52.012;4.346;2022-08-01T14:24:33;3.58;;;1.30;;
51987;SDS011;38003;52.012;4.346;2022-08-01T14:27:04;4.22;;;1.35;;
51987;SDS011;38003;52.012;4.346;2022-08-01T14:29:32;3.35;;;1.48;;
51987;SDS011;38003;52.012;4.346;2022-08-01T14:32:19;4.30;;;1.27;;
51987;SDS011;38003;52.012;4.346;2022-08-01T14:34:53;6.97;;;1.30;;
51987;SDS011;38003;52.012;4.346;2022-08-01T14:37:23;3.40;;;1.30;;
51987;SDS011;38003;52.012;4.346;2022-08-01T14:39:54;4.93;;;1.40;;
51987;SDS011;38003;52.012;4.346;2022-08-01T14:42:24;5.28;;;1.30;;
51987;SDS011;38003;52.012;4.346;2022-08-01T14:44:52;3.22;;;1.30;;
51987;SDS011;38003;52.012;4.346;2022-08-01T14:47:20;8.05;;;1.25;;
51987;SDS011;38003;52.012;4.346;2022-08-01T14:49:48;5.03;;;1.35;;
51987;SDS011;38003;52.012;4.346;2022-08-01T14:52:17;3.17;;;1.08;;
51987;SDS011;38003;52.012;4.346;2022-08-01T14:54:47;5.25;;;1.30;;
51987;SDS011;38003;52.012;4.346;2022-08-01T14:57:14;5.72;;;1.10;;
51987;SDS011;38003;52.012;4.346;2022-08-01T14:59:44;3.78;;;1.20;;
51987;SDS011;38003;52.012;4.346;2022-08-01T15:02:12;2.28;;;0.95;;
51987;SDS011;38003;52.012;4.346;2022-08-01T15:04:43;3.78;;;1.10;;
51987;SDS011;38003;52.012;4.346;2022-08-01T15:07:11;3.83;;;1.23;;
51987;SDS011;38003;52.012;4.346;2022-08-01T15:09:39;5.25;;;1.23;;
51987;SDS011;38003;52.012;4.346;2022-08-01T15:12:09;4.55;;;1.30;;
51987;SDS011;38003;52.012;4.346;2022-08-01T15:14:38;3.35;;;1.27;;
51987;SDS011;38003;52.012;4.346;2022-08-01T15:17:16;2.80;;;1.00;;
51987;SDS011;38003;52.012;4.346;2022-08-01T15:19:47;3.05;;;1.10;;
51987;SDS011;38003;52.012;4.346;2022-08-01T15:22:16;2.05;;;1.10;;
51987;SDS011;38003;52.012;4.346;2022-08-01T15:24:44;3.15;;;1.20;;